In Rescue
 
Open Full Screen Window  High Contrast Mode
Wind Gusting 16 knots
11
July 24, 2024 4:35 PM EDT
Weather Information
Wind Direction
  330 °
Wind Speed
  11 kt (13 mph)
Wind Gust
  16 kt (18 mph)
Altimeter
30.15 in
Visibility
10 SM
Temperature
21° C
70° F
Dewpoint
14° C
57° F
Humidity
64%
1hr Rain Fall
00.00 in.
24hr Rain Fall
00.38 in.
Sky Condition
Scattered @ 2,500 ft
VFR

METAR KLDM 242035Z AUTO 33011G16KT 10SM SCT025 21/14 A3015 RMK AO2 T02140144

FAA Disclaimer: The data displayed is for advisory purposes only and is not to be used for flight planning or operations.